Strona główna
METAR-TAF:

METAR-TAF

Lotnisko :

Port lotniczy Pittsburgh

Pittsburgh, Pensylwania, Stany Zjednoczone

Szerokość geograficzna: 40-30-14N, Długość geograficzna: 080-15-59W, wysokość: 366 m

Aktualna obserwacja pogody

Raport powstał 49 minut temu, godzina 05:51 UTC
Cisza
Temperatura 8°C
Wilgotność 71%
Ciśnienie 1025 hPa
Widzialność: 16.1 km
bezchmurnie

METAR: KPIT 010551Z 00000KT 10SM CLR 08/03 A3028 RMK AO2 SLP264 T00780033 10150 20072 50001 $

czas: 02:40 (06:40 UTC)

Prognoza

Raport powstał 1 godzina i 19 minut temu, godzina 05:21 UTC
Prognoza ważna od 01 godzina 06 UTC do 02 godzina 12 UTC
Wiatr 5 kt od zachodnio-południowy zachód
Widzialność: 10 km
bezchmurnie
Od 02 godzina 0900 UTC
Wiatr 3 kt od zachodnio-południowy zachód
Widzialność: 10 km
Przerywane chmury na wysokości 5000 ft

TAF: KPIT 010521Z 0106/0212 25005KT P6SM SKC FM020900 25003KT P6SM BKN050

Obserwacja i prognoza pogody dla ponad 4000 lotnisk (raport METAR i TAF).

Dostępne stacje oznaczono żółtymi i czerwonymi punktami na mapie.

Najedź kursorem aby zobaczyć nazwę stacji.

Kliknij aby zobaczyć obserwacje i prognozy pogody.

Aby zmienić mapę: kliknij na zielony przycisk z czarnym krzyżykiem, aby powiększyć; na zielony przycisk z myślnikiem, aby pomniejszyć; na zielone strzałki, aby przejść do map sąsiednich.


METAR-TAF: